createdAt,value
2017-04-30T11:10:21.782Z,1009.44
2017-04-30T11:11:30.943Z,1009.36
2017-04-30T11:12:40.751Z,1009.28
2017-04-30T11:13:50.809Z,1009.25
2017-04-30T11:15:00.549Z,1009.28
2017-04-30T11:16:09.985Z,1009.21
2017-04-30T11:17:19.733Z,1009.23
2017-04-30T11:18:29.169Z,1008.97
2017-04-30T11:19:38.929Z,1008.71
2017-04-30T11:20:48.078Z,1008.99
2017-04-30T11:21:57.500Z,1009.01
2017-04-30T11:23:06.916Z,1008.98
2017-04-30T11:24:16.344Z,1008.94
2017-04-30T11:25:25.771Z,1008.85
2017-04-30T11:26:35.826Z,1008.77
2017-04-30T11:27:45.561Z,1008.88
2017-04-30T11:28:55.628Z,1008.89
2017-04-30T11:30:05.381Z,1008.77
2017-04-30T11:31:14.809Z,1008.65
2017-04-30T11:32:24.227Z,1008.83
2017-04-30T11:33:34.622Z,1008.73
2017-04-30T11:34:44.682Z,1008.79
2017-04-30T11:35:54.746Z,1008.74
2017-04-30T11:37:04.174Z,1008.75
2017-04-30T11:38:14.547Z,1008.78
2017-04-30T11:39:24.289Z,1008.67
2017-04-30T11:40:34.024Z,1008.52
2017-04-30T11:41:43.767Z,1008.52
2017-04-30T11:42:53.831Z,1008.51
2017-04-30T11:44:03.577Z,1008.59
2017-04-30T11:45:13.634Z,1008.6
2017-04-30T11:46:23.370Z,1008.75
2017-04-30T11:47:33.143Z,1008.51
2017-04-30T11:48:42.891Z,1008.47
2017-04-30T11:49:52.662Z,1008.34
2017-04-30T11:51:02.403Z,1008.31
2017-04-30T11:52:12.153Z,1008.28
2017-04-30T11:53:21.897Z,1008.23
2017-04-30T11:54:31.646Z,1008.28
2017-04-30T11:55:41.424Z,1008.25
2017-04-30T11:56:51.195Z,1008.17
2017-04-30T11:58:00.934Z,1008.1
2017-04-30T11:59:10.677Z,1008.07
2017-04-30T12:00:20.425Z,1008
2017-04-30T12:01:30.175Z,1008.15
2017-04-30T12:02:39.918Z,1008.21
2017-04-30T12:03:49.665Z,1008.22
2017-04-30T12:04:59.731Z,1008.28
2017-04-30T12:06:10.108Z,1008.25
2017-04-30T12:07:19.851Z,1008.1
2017-04-30T12:08:29.909Z,1008.17
2017-04-30T12:09:39.970Z,1008.34
2017-04-30T12:10:50.024Z,1008.2
2017-04-30T12:12:00.075Z,1008.27
2017-04-30T12:13:10.139Z,1008.13
2017-04-30T12:14:20.194Z,1008.15
2017-04-30T12:15:30.256Z,1008.08
2017-04-30T12:16:39.684Z,1008.1
2017-04-30T12:17:49.791Z,1008.07
2017-04-30T12:18:59.556Z,1008.12
2017-04-30T12:20:09.623Z,1008.08
2017-04-30T12:21:19.675Z,1008.02
2017-04-30T12:22:29.106Z,1007.96
2017-04-30T12:23:39.168Z,1007.86
2017-04-30T12:24:49.555Z,1007.86
2017-04-30T12:25:59.620Z,1007.71
2017-04-30T12:27:09.043Z,1007.8
2017-04-30T12:28:18.793Z,1007.76
2017-04-30T12:29:28.234Z,1007.75
2017-04-30T12:30:38.608Z,1007.74
2017-04-30T12:31:48.979Z,1007.71
2017-04-30T12:32:59.042Z,1007.67
2017-04-30T12:34:09.102Z,1007.68
2017-04-30T12:35:19.171Z,1007.4
2017-04-30T12:36:29.227Z,1007.58
2017-04-30T12:37:38.969Z,1007.62
2017-04-30T12:38:48.716Z,1007.53
2017-04-30T12:39:58.777Z,1007.53
2017-04-30T12:41:08.533Z,1007.54
2017-04-30T12:42:17.959Z,1007.52
2017-04-30T12:43:27.069Z,1007.41
2017-04-30T12:44:36.847Z,1007.51
2017-04-30T12:45:46.285Z,1007.49
2017-04-30T12:46:56.031Z,1007.54
2017-04-30T12:48:05.775Z,1007.51
2017-04-30T12:49:15.848Z,1007.5
2017-04-30T12:50:25.910Z,1007.42
2017-04-30T12:51:35.650Z,1007.36
2017-04-30T12:52:46.023Z,1007.35
2017-04-30T12:53:55.469Z,1007.25
2017-04-30T12:55:05.210Z,1007.23
2017-04-30T12:56:15.333Z,1007.11
2017-04-30T12:57:24.747Z,1007.16
2017-04-30T12:58:34.804Z,1007.08
2017-04-30T12:59:44.871Z,1007.07
2017-04-30T13:00:54.617Z,1007.04
2017-04-30T13:02:04.357Z,1007.11
2017-04-30T13:03:13.789Z,1007.06
2017-04-30T13:04:23.535Z,1007.09
2017-04-30T13:05:33.918Z,1006.97
2017-04-30T13:06:43.351Z,1006.98
2017-04-30T13:07:52.772Z,1006.91
2017-04-30T13:09:02.531Z,1006.87
2017-04-30T13:10:11.647Z,1007
2017-04-30T13:11:21.712Z,1006.97
2017-04-30T13:12:31.775Z,1006.91
2017-04-30T13:13:42.156Z,1006.92
2017-04-30T13:14:52.213Z,1006.89
2017-04-30T13:16:02.265Z,1006.98
2017-04-30T13:17:12.034Z,1006.97
2017-04-30T13:18:21.778Z,1006.93
2017-04-30T13:19:31.536Z,1006.92
2017-04-30T13:20:40.968Z,1006.82
2017-04-30T13:21:51.334Z,1006.89
2017-04-30T13:23:00.762Z,1006.76
2017-04-30T13:24:11.130Z,1006.73
2017-04-30T13:25:20.872Z,1006.84
2017-04-30T13:26:30.657Z,1006.78
2017-04-30T13:27:40.758Z,1006.75
2017-04-30T13:28:50.532Z,1006.79
2017-04-30T13:30:00.911Z,1006.74
2017-04-30T13:31:11.284Z,1006.68
2017-04-30T13:32:21.025Z,1006.69
2017-04-30T13:33:30.760Z,1006.62
2017-04-30T13:34:40.823Z,1006.63
2017-04-30T13:35:50.245Z,1006.53
2017-04-30T13:36:59.983Z,1006.61
2017-04-30T13:38:10.050Z,1006.61
2017-04-30T13:39:19.494Z,1006.58
2017-04-30T13:40:29.706Z,1006.57
2017-04-30T13:41:39.447Z,1006.5
2017-04-30T13:42:49.511Z,1006.48
2017-04-30T13:43:59.298Z,1006.26
2017-04-30T13:45:09.413Z,1006.46
2017-04-30T13:46:19.159Z,1006.45
2017-04-30T13:47:29.534Z,1006.42
2017-04-30T13:48:39.282Z,1006.49
2017-04-30T13:49:49.670Z,1006.39
2017-04-30T13:50:59.458Z,1006.34
2017-04-30T13:52:09.210Z,1006.34
2017-04-30T13:53:19.271Z,1006.37
2017-04-30T13:54:29.334Z,1006.41
2017-04-30T13:55:39.068Z,1006.36
2017-04-30T13:56:48.808Z,1006.31
2017-04-30T13:57:58.549Z,1006.24
2017-04-30T13:59:08.626Z,1006.21
2017-04-30T14:00:18.683Z,1006.26
2017-04-30T14:01:28.423Z,1006.26
2017-04-30T14:02:37.853Z,1006.25
2017-04-30T14:03:47.923Z,1006.15
2017-04-30T14:04:57.669Z,1006.18
2017-04-30T14:06:07.734Z,1006.29
2017-04-30T14:07:17.468Z,1006.26
2017-04-30T14:08:26.898Z,1006.29
2017-04-30T14:09:36.979Z,1006.28
2017-04-30T14:10:46.728Z,1006.23
2017-04-30T14:11:56.163Z,1006.19
2017-04-30T14:13:05.617Z,1006.14
2017-04-30T14:14:15.976Z,1006.13
2017-04-30T14:15:26.033Z,1006.2
2017-04-30T14:16:35.781Z,1006.21
2017-04-30T14:17:45.842Z,1006.11
2017-04-30T14:18:55.594Z,1006.24
2017-04-30T14:20:05.026Z,1006.2
2017-04-30T14:21:14.764Z,1006.1
2017-04-30T14:22:24.510Z,1006.11
2017-04-30T14:23:34.250Z,1006.11
2017-04-30T14:24:43.688Z,1006.1
2017-04-30T14:25:53.111Z,1006
2017-04-30T14:27:02.539Z,1006.02
2017-04-30T14:28:11.658Z,1005.97
2017-04-30T14:29:22.056Z,1005.95
2017-04-30T14:30:32.118Z,1005.94
2017-04-30T14:31:41.555Z,1005.88
2017-04-30T14:32:51.935Z,1005.87
2017-04-30T14:34:01.375Z,1005.95
2017-04-30T14:35:11.129Z,1005.92
2017-04-30T14:36:21.184Z,1005.96
2017-04-30T14:37:31.246Z,1005.95
2017-04-30T14:38:40.999Z,1005.95
2017-04-30T14:39:50.422Z,1005.88
2017-04-30T14:41:00.485Z,1005.93
2017-04-30T14:42:10.533Z,1005.86
2017-04-30T14:43:20.278Z,1005.76
2017-04-30T14:44:30.035Z,1005.82
2017-04-30T14:45:39.785Z,1005.7
2017-04-30T14:46:49.534Z,1005.76
2017-04-30T14:47:58.645Z,1005.86
2017-04-30T14:49:08.701Z,1005.87
2017-04-30T14:50:18.443Z,1005.81
2017-04-30T14:51:28.815Z,1005.81
2017-04-30T14:52:38.549Z,1005.8
2017-04-30T14:53:47.661Z,1005.75
2017-04-30T14:54:57.085Z,1005.74
2017-04-30T14:56:07.174Z,1005.73
2017-04-30T14:57:16.922Z,1005.62
2017-04-30T14:58:26.978Z,1005.64
2017-04-30T14:59:37.041Z,1005.67
2017-04-30T15:00:47.099Z,1005.57
2017-04-30T15:01:56.540Z,1005.62
2017-04-30T15:03:06.910Z,1005.47
2017-04-30T15:04:16.017Z,1005.53
2017-04-30T15:05:26.068Z,1005.51
2017-04-30T15:06:35.488Z,1005.52
2017-04-30T15:07:44.910Z,1005.47
2017-04-30T15:08:55.282Z,1005.46
2017-04-30T15:10:05.349Z,1005.5
2017-04-30T15:11:15.083Z,1005.47
2017-04-30T15:12:24.510Z,1005.43
2017-04-30T15:13:34.570Z,1005.39
2017-04-30T15:14:44.942Z,1005.35
2017-04-30T15:15:54.993Z,1005.35
2017-04-30T15:17:04.156Z,1005.31
2017-04-30T15:18:14.201Z,1005.26
2017-04-30T15:19:23.322Z,1005.25
2017-04-30T15:20:33.067Z,1005.26
2017-04-30T15:21:43.119Z,1005.17
2017-04-30T15:22:53.180Z,1005.24
2017-04-30T15:24:02.922Z,1005.18
2017-04-30T15:25:12.348Z,1005.16
2017-04-30T15:26:22.085Z,1005.21
2017-04-30T15:27:31.830Z,1005.12
2017-04-30T15:28:41.569Z,1004.99
2017-04-30T15:29:51.625Z,1005.18
2017-04-30T15:31:01.366Z,1005.18
2017-04-30T15:32:11.432Z,1005.2
2017-04-30T15:33:21.488Z,1005.17
2017-04-30T15:34:31.263Z,1005.1
2017-04-30T15:35:40.697Z,1005.08
2017-04-30T15:36:50.439Z,1005.09
2017-04-30T15:38:00.505Z,1004.97
2017-04-30T15:39:10.554Z,1005.08
2017-04-30T15:40:20.292Z,1005.07
2017-04-30T15:41:30.024Z,1004.96
2017-04-30T15:42:39.762Z,1005
2017-04-30T15:43:49.507Z,1004.96
2017-04-30T15:44:59.872Z,1004.96
2017-04-30T15:46:09.624Z,1004.86
2017-04-30T15:47:19.050Z,1004.97
2017-04-30T15:48:29.099Z,1004.93
2017-04-30T15:49:38.849Z,1004.89
2017-04-30T15:50:48.270Z,1004.87
2017-04-30T15:51:57.384Z,1004.91
2017-04-30T15:53:07.464Z,1004.89
2017-04-30T15:54:16.578Z,1004.84
2017-04-30T15:55:26.642Z,1004.86
2017-04-30T15:56:36.374Z,1004.87
2017-04-30T15:57:46.121Z,1004.87
2017-04-30T15:58:55.546Z,1004.87
2017-04-30T16:00:05.605Z,1004.83
2017-04-30T16:01:15.023Z,1004.79
2017-04-30T16:02:25.073Z,1004.74
2017-04-30T16:03:35.127Z,1004.73
2017-04-30T16:04:45.182Z,1004.74
2017-04-30T16:05:54.613Z,1004.66
2017-04-30T16:07:04.670Z,1004.73
2017-04-30T16:08:15.042Z,1004.69
2017-04-30T16:09:24.790Z,1004.66
2017-04-30T16:10:34.848Z,1004.67
2017-04-30T16:11:44.913Z,1004.63
2017-04-30T16:12:53.708Z,1004.64
2017-04-30T16:14:03.769Z,1004.58
2017-04-30T16:15:13.193Z,1004.59
2017-04-30T16:16:22.928Z,1004.55
2017-04-30T16:17:33.293Z,1004.52
2017-04-30T16:18:42.719Z,1004.55
2017-04-30T16:19:52.449Z,1004.54
2017-04-30T16:21:02.509Z,1004.47
2017-04-30T16:22:12.251Z,1004.5
2017-04-30T16:23:21.679Z,1004.45
2017-04-30T16:24:31.418Z,1004.41
2017-04-30T16:25:40.849Z,1004.43
2017-04-30T16:26:50.268Z,1004.42
2017-04-30T16:28:00.331Z,1004.34
2017-04-30T16:29:10.712Z,1004.35
2017-04-30T16:30:20.458Z,1004.32
2017-04-30T16:31:30.833Z,1004.36
2017-04-30T16:32:40.567Z,1004.35
2017-04-30T16:33:50.940Z,1004.31
2017-04-30T16:35:00.680Z,1004.31
2017-04-30T16:36:10.105Z,1004.29
2017-04-30T16:37:20.476Z,1004.19
2017-04-30T16:38:29.911Z,1004.24
2017-04-30T16:39:39.981Z,1004.22
2017-04-30T16:40:50.068Z,1004.24
2017-04-30T16:42:00.183Z,1004.2
2017-04-30T16:43:09.919Z,1004.3
2017-04-30T16:44:19.356Z,1004.29
2017-04-30T16:45:29.414Z,1004.21
2017-04-30T16:46:39.148Z,1004.26
2017-04-30T16:47:49.197Z,1004.25
2017-04-30T16:48:58.937Z,1004.17
2017-04-30T16:50:08.683Z,1004.21
2017-04-30T16:51:18.730Z,1004.18
2017-04-30T16:52:28.796Z,1004.13
2017-04-30T16:53:37.929Z,1004.11
2017-04-30T16:54:47.039Z,1004.1
2017-04-30T16:55:57.083Z,1004.12
2017-04-30T16:57:06.815Z,1004.13
2017-04-30T16:58:15.605Z,1004.1
2017-04-30T16:59:25.978Z,1004.04
2017-04-30T17:00:35.399Z,1003.99
2017-04-30T17:01:45.126Z,1004.01
2017-04-30T17:02:53.950Z,1004.02
2017-04-30T17:04:04.327Z,1004.11
2017-04-30T17:05:14.072Z,1004.03
2017-04-30T17:06:24.445Z,1004.07
2017-04-30T17:07:34.189Z,1004.07
2017-04-30T17:08:44.258Z,1004.06
2017-04-30T17:09:53.691Z,1004.01
2017-04-30T17:11:03.115Z,1004.01
2017-04-30T17:12:12.850Z,1003.98
2017-04-30T17:13:22.585Z,1003.96
2017-04-30T17:14:32.652Z,1003.95
2017-04-30T17:15:42.386Z,1003.96
2017-04-30T17:16:51.805Z,1003.94
2017-04-30T17:18:01.219Z,1003.91
2017-04-30T17:19:10.327Z,1003.98
2017-04-30T17:20:20.066Z,1003.99
2017-04-30T17:21:30.123Z,1003.97
2017-04-30T17:22:39.889Z,1004.02
2017-04-30T17:23:49.947Z,1003.99
2017-04-30T17:25:00.011Z,1004.02
2017-04-30T17:26:09.749Z,1004
2017-04-30T17:27:19.786Z,1003.99
2017-04-30T17:28:29.516Z,1003.98
2017-04-30T17:29:39.568Z,1003.95
2017-04-30T17:30:49.622Z,1003.95
2017-04-30T17:31:59.675Z,1003.95
2017-04-30T17:33:09.120Z,1003.92
2017-04-30T17:34:18.554Z,1004.02
2017-04-30T17:35:27.348Z,1004.01
2017-04-30T17:36:37.082Z,1004.03
2017-04-30T17:37:47.452Z,1003.95
2017-04-30T17:38:57.186Z,1003.94
2017-04-30T17:40:06.927Z,1003.89
2017-04-30T17:41:16.978Z,1003.9
2017-04-30T17:42:26.710Z,1003.91
2017-04-30T17:43:36.447Z,1003.94
2017-04-30T17:44:46.503Z,1003.91
2017-04-30T17:45:56.873Z,1003.97
2017-04-30T17:47:06.617Z,1003.93
2017-04-30T17:48:16.381Z,1003.99
2017-04-30T17:49:25.174Z,1003.99
2017-04-30T17:50:34.595Z,1003.98
2017-04-30T17:51:44.328Z,1003.95
2017-04-30T17:52:54.686Z,1004.01
2017-04-30T17:54:04.747Z,1003.96
2017-04-30T17:55:15.110Z,1003.98
2017-04-30T17:56:24.220Z,1003.99
2017-04-30T17:57:34.266Z,1004.06
2017-04-30T17:58:43.994Z,1004
2017-04-30T17:59:54.050Z,1004
2017-04-30T18:01:03.468Z,1003.99
2017-04-30T18:02:12.886Z,1003.99
2017-04-30T18:03:22.312Z,1004.01
2017-04-30T18:04:32.052Z,1003.98
2017-04-30T18:05:42.107Z,1004.04
2017-04-30T18:06:51.838Z,1004.05
2017-04-30T18:08:01.882Z,1004.02
2017-04-30T18:09:11.631Z,1004.05
2017-04-30T18:10:21.999Z,1003.97
2017-04-30T18:11:32.047Z,1003.98
2017-04-30T18:12:41.774Z,1003.94
2017-04-30T18:13:51.828Z,1003.98
2017-04-30T18:15:01.878Z,1003.99
2017-04-30T18:16:11.606Z,1003.97
2017-04-30T18:17:21.021Z,1003.96
2017-04-30T18:18:30.755Z,1003.97
2017-04-30T18:19:41.132Z,1003.95
2017-04-30T18:20:50.873Z,1003.95
2017-04-30T18:22:00.914Z,1003.98
2017-04-30T18:23:10.657Z,1003.93
2017-04-30T18:24:21.014Z,1003.92
2017-04-30T18:25:30.744Z,1003.96
2017-04-30T18:26:40.151Z,1003.93
2017-04-30T18:27:49.569Z,1003.95
2017-04-30T18:28:59.304Z,1003.94
2017-04-30T18:30:09.354Z,1004.02
2017-04-30T18:31:19.084Z,1003.96
2017-04-30T18:32:28.509Z,1003.95
2017-04-30T18:33:38.380Z,1003.92
2017-04-30T18:34:48.448Z,1003.93
2017-04-30T18:35:57.865Z,1003.96
2017-04-30T18:37:07.288Z,1003.97
2017-04-30T18:38:17.328Z,1003.97
2017-04-30T18:39:27.370Z,1003.94
2017-04-30T18:40:36.779Z,1003.93
2017-04-30T18:41:45.886Z,1004.02
2017-04-30T18:42:55.930Z,1004
2017-04-30T18:44:05.709Z,1004.05
2017-04-30T18:45:15.440Z,1004.06
2017-04-30T18:46:25.485Z,1004.1
2017-04-30T18:47:35.216Z,1004.07
2017-04-30T18:48:45.301Z,1004.08
2017-04-30T18:49:55.042Z,1004.1
2017-04-30T18:51:05.089Z,1004.09
2017-04-30T18:52:15.140Z,1004.1
2017-04-30T18:53:24.871Z,1004.08
2017-04-30T18:54:34.614Z,1004.11
2017-04-30T18:55:44.970Z,1004.09
2017-04-30T18:56:55.031Z,1004.09
2017-04-30T18:58:05.074Z,1004.12
2017-04-30T18:59:15.124Z,1004.11
2017-04-30T19:00:25.173Z,1004.11
2017-04-30T19:01:35.218Z,1004.08
2017-04-30T19:02:45.260Z,1004.12
2017-04-30T19:03:54.997Z,1004.1
2017-04-30T19:05:05.043Z,1004.08
2017-04-30T19:06:14.453Z,1004.06
2017-04-30T19:07:23.862Z,1004.09
2017-04-30T19:08:34.228Z,1004.09
2017-04-30T19:09:43.644Z,1004.1
2017-04-30T19:10:53.697Z,1004.1
2017-04-30T19:12:04.085Z,1004.08
2017-04-30T19:13:13.815Z,1004.09
2017-04-30T19:14:23.854Z,1004.07
2017-04-30T19:15:33.262Z,1004.06
2017-04-30T19:16:42.997Z,1004.06
2017-04-30T19:17:53.362Z,1004.1
2017-04-30T19:19:03.409Z,1004.09
2017-04-30T19:20:13.462Z,1004.08
2017-04-30T19:21:23.504Z,1004.06
2017-04-30T19:22:33.544Z,1004.03
2017-04-30T19:23:43.273Z,1004.07
2017-04-30T19:24:53.319Z,1004.11
2017-04-30T19:26:03.044Z,1004.06
2017-04-30T19:27:12.782Z,1004.06
2017-04-30T19:28:23.134Z,1004.04
2017-04-30T19:29:32.868Z,1004.09
2017-04-30T19:30:42.599Z,1004.06
2017-04-30T19:31:52.324Z,1004.08
2017-04-30T19:33:02.051Z,1004.08
2017-04-30T19:34:11.800Z,1004.05
2017-04-30T19:35:21.843Z,1004.1
2017-04-30T19:36:31.587Z,1004.09
2017-04-30T19:37:41.318Z,1004.09
2017-04-30T19:38:51.362Z,1004.07
2017-04-30T19:40:01.087Z,1004.07
2017-04-30T19:41:10.813Z,1004.05
2017-04-30T19:42:20.227Z,1004.05
2017-04-30T19:43:29.315Z,1004.01
2017-04-30T19:44:39.047Z,1004.05
2017-04-30T19:45:48.447Z,1004.03
2017-04-30T19:46:58.491Z,1004.04
2017-04-30T19:48:07.617Z,1004.06
2017-04-30T19:49:17.041Z,1004.03
2017-04-30T19:50:26.455Z,1004.04
2017-04-30T19:51:35.559Z,1004.02
2017-04-30T19:52:45.608Z,1003.99
2017-04-30T19:53:55.347Z,1004
2017-04-30T19:55:05.077Z,1004.01
2017-04-30T19:56:14.480Z,1004.02
2017-04-30T19:57:24.524Z,1003.92
2017-04-30T19:58:34.559Z,1003.95
2017-04-30T19:59:44.604Z,1003.95
2017-04-30T20:00:54.013Z,1003.96
2017-04-30T20:02:03.743Z,1003.99
2017-04-30T20:03:13.787Z,1003.95
2017-04-30T20:04:23.823Z,1003.96
2017-04-30T20:05:33.868Z,1003.98
2017-04-30T20:06:44.226Z,1003.92
2017-04-30T20:07:53.954Z,1003.92
2017-04-30T20:09:03.044Z,1003.9
2017-04-30T20:10:12.450Z,1003.96
2017-04-30T20:11:22.176Z,1003.92
2017-04-30T20:12:31.577Z,1003.95
2017-04-30T20:13:41.944Z,1003.88
2017-04-30T20:14:51.674Z,1003.9
2017-04-30T20:16:01.410Z,1003.88
2017-04-30T20:17:10.501Z,1003.9
2017-04-30T20:18:20.859Z,1003.88
2017-04-30T20:19:30.282Z,1003.89
2017-04-30T20:20:40.329Z,1003.93
2017-04-30T20:21:50.050Z,1003.88
2017-04-30T20:22:59.498Z,1003.89
2017-04-30T20:24:09.550Z,1003.86
2017-04-30T20:25:19.601Z,1003.85
2017-04-30T20:26:29.017Z,1003.86
2017-04-30T20:27:39.069Z,1003.91
2017-04-30T20:28:49.436Z,1003.87
2017-04-30T20:29:59.486Z,1003.87
2017-04-30T20:31:09.521Z,1003.84
2017-04-30T20:32:18.615Z,1003.84
2017-04-30T20:33:28.034Z,1003.84
2017-04-30T20:34:37.452Z,1003.82
2017-04-30T20:35:47.175Z,1003.78
2017-04-30T20:36:56.581Z,1003.81
2017-04-30T20:38:06.302Z,1003.81
2017-04-30T20:39:16.043Z,1003.76
2017-04-30T20:40:25.815Z,1003.75
2017-04-30T20:41:35.543Z,1003.72
2017-04-30T20:42:45.897Z,1003.75
2017-04-30T20:43:55.309Z,1003.7
2017-04-30T20:45:05.036Z,1003.69
2017-04-30T20:46:15.075Z,1003.66
2017-04-30T20:47:24.788Z,1003.66
2017-04-30T20:48:34.519Z,1003.59
2017-04-30T20:49:44.560Z,1003.6
2017-04-30T20:50:53.977Z,1003.6
2017-04-30T20:52:04.018Z,1003.64
2017-04-30T20:53:13.117Z,1003.65
2017-04-30T20:54:23.152Z,1003.67
2017-04-30T20:55:32.875Z,1003.63
2017-04-30T20:56:42.603Z,1003.6
2017-04-30T20:57:52.323Z,1003.62
2017-04-30T20:59:02.364Z,1003.62
2017-04-30T21:00:12.097Z,1003.56
2017-04-30T21:01:22.141Z,1003.6
2017-04-30T21:02:31.555Z,1003.57
2017-04-30T21:03:41.595Z,1003.57
2017-04-30T21:04:52.031Z,1003.52
2017-04-30T21:06:01.760Z,1003.46
2017-04-30T21:07:11.797Z,1003.49
2017-04-30T21:08:21.842Z,1003.5
2017-04-30T21:09:31.578Z,1003.48
2017-04-30T21:10:41.309Z,1003.53
2017-04-30T21:11:50.721Z,1003.5
2017-04-30T21:13:00.453Z,1003.45
2017-04-30T21:14:10.185Z,1003.46
2017-04-30T21:15:20.221Z,1003.49
2017-04-30T21:16:30.258Z,1003.41
2017-04-30T21:17:40.301Z,1003.48
2017-04-30T21:18:50.652Z,1003.49
2017-04-30T21:20:00.700Z,1003.48
2017-04-30T21:21:10.423Z,1003.5
2017-04-30T21:22:20.146Z,1003.54
2017-04-30T21:23:30.179Z,1003.45
2017-04-30T21:24:39.909Z,1003.53
2017-04-30T21:25:49.946Z,1003.52
2017-04-30T21:26:59.357Z,1003.5
2017-04-30T21:28:09.398Z,1003.49
2017-04-30T21:29:19.117Z,1003.52
2017-04-30T21:30:29.162Z,1003.51
2017-04-30T21:31:39.197Z,1003.53
2017-04-30T21:32:48.931Z,1003.52
2017-04-30T21:33:58.649Z,1003.47
2017-04-30T21:35:08.379Z,1003.49
2017-04-30T21:36:18.728Z,1003.46
2017-04-30T21:37:28.766Z,1003.47
2017-04-30T21:38:38.179Z,1003.46
2017-04-30T21:39:47.901Z,1003.51
2017-04-30T21:40:57.942Z,1003.47
2017-04-30T21:42:07.980Z,1003.44
2017-04-30T21:43:17.398Z,1003.44
2017-04-30T21:44:27.438Z,1003.52
2017-04-30T21:45:37.165Z,1003.52
2017-04-30T21:46:47.203Z,1003.54
2017-04-30T21:47:57.252Z,1003.55
2017-04-30T21:49:06.980Z,1003.54
2017-04-30T21:50:17.022Z,1003.53
2017-04-30T21:51:26.430Z,1003.46
2017-04-30T21:52:36.478Z,1003.48
2017-04-30T21:53:46.832Z,1003.47
2017-04-30T21:54:56.624Z,1003.49
2017-04-30T21:56:06.357Z,1003.54
2017-04-30T21:57:16.083Z,1003.43
2017-04-30T21:58:24.854Z,1003.49
2017-04-30T21:59:34.590Z,1003.45
2017-04-30T22:00:44.628Z,1003.48
2017-04-30T22:01:54.036Z,1003.47
2017-04-30T22:03:03.770Z,1003.47
2017-04-30T22:04:13.180Z,1003.52
2017-04-30T22:05:22.607Z,1003.47
2017-04-30T22:06:32.330Z,1003.45
2017-04-30T22:07:42.687Z,1003.49
2017-04-30T22:08:52.741Z,1003.45
2017-04-30T22:10:02.783Z,1003.43
2017-04-30T22:11:12.817Z,1003.46
2017-04-30T22:12:22.218Z,1003.43
2017-04-30T22:13:31.966Z,1003.48
2017-04-30T22:14:41.060Z,1003.41
2017-04-30T22:15:51.107Z,1003.39
2017-04-30T22:17:00.518Z,1003.46
2017-04-30T22:18:09.982Z,1003.45
2017-04-30T22:19:19.713Z,1003.45
2017-04-30T22:20:29.441Z,1003.42
2017-04-30T22:21:39.169Z,1003.43
2017-04-30T22:22:48.575Z,1003.4
2017-04-30T22:23:57.986Z,1003.37
2017-04-30T22:25:07.394Z,1003.39
2017-04-30T22:26:17.147Z,1003.39
2017-04-30T22:27:26.235Z,1003.38
2017-04-30T22:28:35.963Z,1003.33
2017-04-30T22:29:45.684Z,1003.33
2017-04-30T22:30:55.417Z,1003.4
2017-04-30T22:32:05.148Z,1003.38
2017-04-30T22:33:15.508Z,1003.36
2017-04-30T22:34:25.221Z,1003.38
2017-04-30T22:35:34.954Z,1003.42
2017-04-30T22:36:44.718Z,1003.38
2017-04-30T22:37:53.813Z,1003.36
2017-04-30T22:39:03.519Z,1003.34
2017-04-30T22:40:13.557Z,1003.34
2017-04-30T22:41:23.310Z,1003.34
2017-04-30T22:42:32.717Z,1003.29
2017-04-30T22:43:42.126Z,1003.32
2017-04-30T22:44:52.489Z,1003.33
2017-04-30T22:46:02.214Z,1003.33
2017-04-30T22:47:12.256Z,1003.32
2017-04-30T22:48:21.985Z,1003.33
2017-04-30T22:49:31.710Z,1003.27
2017-04-30T22:50:41.433Z,1003.26
2017-04-30T22:51:51.467Z,1003.25
2017-04-30T22:53:01.198Z,1003.27
2017-04-30T22:54:10.608Z,1003.24
2017-04-30T22:55:20.336Z,1003.2
2017-04-30T22:56:29.735Z,1003.22
2017-04-30T22:57:39.774Z,1003.19
2017-04-30T22:58:49.490Z,1003.17
2017-04-30T22:59:58.915Z,1003.21
2017-04-30T23:01:08.948Z,1003.22
2017-04-30T23:02:18.039Z,1003.23
2017-04-30T23:03:27.486Z,1003.19
2017-04-30T23:04:37.531Z,1003.28
2017-04-30T23:05:47.602Z,1003.26
2017-04-30T23:06:57.011Z,1003.22
2017-04-30T23:08:06.736Z,1003.15
2017-04-30T23:09:16.153Z,1003.18
2017-04-30T23:10:26.190Z,1003.24
2017-04-30T23:11:36.225Z,1003.2
2017-04-30T23:12:45.943Z,1003.17
2017-04-30T23:13:55.665Z,1003.22
2017-04-30T23:15:05.381Z,1003.18
2017-04-30T23:16:14.786Z,1003.24
2017-04-30T23:17:25.130Z,1003.17
2017-04-30T23:18:35.172Z,1003.17
2017-04-30T23:19:45.204Z,1003.18
2017-04-30T23:20:54.940Z,1003.16
2017-04-30T23:22:04.677Z,1003.17
2017-04-30T23:23:14.395Z,1003.19
2017-04-30T23:24:24.133Z,1003.17
2017-04-30T23:25:33.545Z,1003.19
2017-04-30T23:26:43.580Z,1003.17
2017-04-30T23:27:53.313Z,1003.23
2017-04-30T23:29:03.360Z,1003.22
2017-04-30T23:30:13.080Z,1003.16
2017-04-30T23:31:23.114Z,1003.16
2017-04-30T23:32:32.523Z,1003.14
2017-04-30T23:33:42.579Z,1003.15
2017-04-30T23:34:51.997Z,1003.19
2017-04-30T23:36:02.051Z,1003.17
2017-04-30T23:37:11.781Z,1003.14
2017-04-30T23:38:21.818Z,1003.13
2017-04-30T23:39:31.867Z,1003.16
2017-04-30T23:40:41.905Z,1003.17
2017-04-30T23:41:51.940Z,1003.16
2017-04-30T23:43:01.971Z,1003.19
2017-04-30T23:44:12.006Z,1003.14
2017-04-30T23:45:22.044Z,1003.12
2017-04-30T23:46:31.449Z,1003.11
2017-04-30T23:47:40.859Z,1003.13
2017-04-30T23:48:50.262Z,1003.14
2017-04-30T23:49:59.985Z,1003.12
2017-04-30T23:51:10.032Z,1003.13
2017-04-30T23:52:20.386Z,1003.13
2017-04-30T23:53:30.441Z,1003.11
2017-04-30T23:54:40.157Z,1003.19
2017-04-30T23:55:49.243Z,1003.14
2017-04-30T23:56:58.656Z,1003.11
2017-04-30T23:58:07.739Z,1003.16
2017-04-30T23:59:17.791Z,1003.18
